sensor_id;sensor_type;location;lat;lon;timestamp;temperature;humidity
16479;DHT22;8350;52.316;10.530;2022-12-15T00:01:17;-9.70;99.90
16479;DHT22;8350;52.316;10.530;2022-12-15T00:04:03;-9.80;99.90
16479;DHT22;8350;52.316;10.530;2022-12-15T00:06:49;-9.80;99.90
16479;DHT22;8350;52.316;10.530;2022-12-15T00:09:39;-9.80;99.90
16479;DHT22;8350;52.316;10.530;2022-12-15T00:12:23;-9.80;99.90
16479;DHT22;8350;52.316;10.530;2022-12-15T00:15:12;-9.80;99.90
16479;DHT22;8350;52.316;10.530;2022-12-15T00:17:56;-9.70;99.90
16479;DHT22;8350;52.316;10.530;2022-12-15T00:20:42;-9.70;99.90
16479;DHT22;8350;52.316;10.530;2022-12-15T00:23:26;-9.70;99.90
16479;DHT22;8350;52.316;10.530;2022-12-15T00:26:11;-9.70;99.90
16479;DHT22;8350;52.316;10.530;2022-12-15T00:28:55;-9.70;99.90
16479;DHT22;8350;52.316;10.530;2022-12-15T00:31:39;-9.70;99.90
16479;DHT22;8350;52.316;10.530;2022-12-15T00:34:23;-9.80;99.90
16479;DHT22;8350;52.316;10.530;2022-12-15T00:37:09;-10.00;99.90
16479;DHT22;8350;52.316;10.530;2022-12-15T00:39:53;-9.90;99.90
16479;DHT22;8350;52.316;10.530;2022-12-15T00:42:24;-10.00;99.90
16479;DHT22;8350;52.316;10.530;2022-12-15T00:44:53;-10.00;99.90
16479;DHT22;8350;52.316;10.530;2022-12-15T00:47:20;-10.00;99.90
16479;DHT22;8350;52.316;10.530;2022-12-15T00:49:46;-10.00;99.90
16479;DHT22;8350;52.316;10.530;2022-12-15T00:52:32;-9.90;99.90
16479;DHT22;8350;52.316;10.530;2022-12-15T00:55:16;-9.90;99.90
16479;DHT22;8350;52.316;10.530;2022-12-15T00:58:00;-9.90;99.90
16479;DHT22;8350;52.316;10.530;2022-12-15T01:00:44;-10.10;99.90
16479;DHT22;8350;52.316;10.530;2022-12-15T01:03:29;-10.20;99.90
16479;DHT22;8350;52.316;10.530;2022-12-15T01:06:15;-10.40;99.90
16479;DHT22;8350;52.316;10.530;2022-12-15T01:09:01;-10.50;99.90
16479;DHT22;8350;52.316;10.530;2022-12-15T01:11:46;-10.50;99.90
16479;DHT22;8350;52.316;10.530;2022-12-15T01:14:31;-10.50;99.90
16479;DHT22;8350;52.316;10.530;2022-12-15T01:17:16;-10.50;99.90
16479;DHT22;8350;52.316;10.530;2022-12-15T01:20:00;-10.50;99.90
16479;DHT22;8350;52.316;10.530;2022-12-15T01:22:43;-10.40;99.90
16479;DHT22;8350;52.316;10.530;2022-12-15T01:25:12;-10.30;99.90
16479;DHT22;8350;52.316;10.530;2022-12-15T01:27:40;-10.30;99.90
16479;DHT22;8350;52.316;10.530;2022-12-15T01:30:08;-10.20;99.90
16479;DHT22;8350;52.316;10.530;2022-12-15T01:32:36;-10.20;99.90
16479;DHT22;8350;52.316;10.530;2022-12-15T01:35:04;-10.20;99.90
16479;DHT22;8350;52.316;10.530;2022-12-15T01:37:31;-10.20;99.90
16479;DHT22;8350;52.316;10.530;2022-12-15T01:39:59;-10.30;99.90
16479;DHT22;8350;52.316;10.530;2022-12-15T01:42:45;-10.30;99.90
16479;DHT22;8350;52.316;10.530;2022-12-15T01:45:40;-10.30;99.90
16479;DHT22;8350;52.316;10.530;2022-12-15T01:48:14;-10.40;99.90
16479;DHT22;8350;52.316;10.530;2022-12-15T01:50:46;-10.40;99.90
16479;DHT22;8350;52.316;10.530;2022-12-15T01:53:14;-10.40;99.90
16479;DHT22;8350;52.316;10.530;2022-12-15T01:55:42;-10.40;99.90
16479;DHT22;8350;52.316;10.530;2022-12-15T01:58:12;-10.40;99.90
16479;DHT22;8350;52.316;10.530;2022-12-15T02:00:41;-10.40;99.90
16479;DHT22;8350;52.316;10.530;2022-12-15T02:03:09;-10.40;99.90
16479;DHT22;8350;52.316;10.530;2022-12-15T02:05:36;-10.50;99.90
16479;DHT22;8350;52.316;10.530;2022-12-15T02:08:04;-10.50;99.90
16479;DHT22;8350;52.316;10.530;2022-12-15T02:10:38;-10.60;99.90
16479;DHT22;8350;52.316;10.530;2022-12-15T02:13:14;-10.60;99.90
16479;DHT22;8350;52.316;10.530;2022-12-15T02:15:46;-10.50;99.90
16479;DHT22;8350;52.316;10.530;2022-12-15T02:18:19;-10.50;99.90
16479;DHT22;8350;52.316;10.530;2022-12-15T02:20:52;-10.40;99.90
16479;DHT22;8350;52.316;10.530;2022-12-15T02:27:14;-10.40;99.90
16479;DHT22;8350;52.316;10.530;2022-12-15T02:30:08;-10.40;99.90
16479;DHT22;8350;52.316;10.530;2022-12-15T02:32:46;-10.40;99.90
16479;DHT22;8350;52.316;10.530;2022-12-15T02:35:19;-10.40;99.90
16479;DHT22;8350;52.316;10.530;2022-12-15T02:37:50;-10.30;99.90
16479;DHT22;8350;52.316;10.530;2022-12-15T02:40:17;-10.20;99.90
16479;DHT22;8350;52.316;10.530;2022-12-15T02:42:46;-10.20;99.90
16479;DHT22;8350;52.316;10.530;2022-12-15T02:45:28;-10.00;99.90
16479;DHT22;8350;52.316;10.530;2022-12-15T02:48:08;-9.80;99.90
16479;DHT22;8350;52.316;10.530;2022-12-15T02:50:51;-9.70;99.90
16479;DHT22;8350;52.316;10.530;2022-12-15T02:53:33;-9.60;99.90
16479;DHT22;8350;52.316;10.530;2022-12-15T02:56:09;-9.60;99.90
16479;DHT22;8350;52.316;10.530;2022-12-15T02:58:44;-9.50;99.90
16479;DHT22;8350;52.316;10.530;2022-12-15T03:01:19;-9.50;99.90
16479;DHT22;8350;52.316;10.530;2022-12-15T03:03:49;-9.50;99.90
16479;DHT22;8350;52.316;10.530;2022-12-15T03:06:18;-9.50;99.90
16479;DHT22;8350;52.316;10.530;2022-12-15T03:08:45;-9.40;99.90
16479;DHT22;8350;52.316;10.530;2022-12-15T03:11:12;-9.40;99.90
16479;DHT22;8350;52.316;10.530;2022-12-15T03:13:39;-9.40;99.90
16479;DHT22;8350;52.316;10.530;2022-12-15T03:16:08;-9.40;99.90
16479;DHT22;8350;52.316;10.530;2022-12-15T03:18:37;-9.40;99.90
16479;DHT22;8350;52.316;10.530;2022-12-15T03:21:04;-9.40;99.90
16479;DHT22;8350;52.316;10.530;2022-12-15T03:23:31;-9.30;99.90
16479;DHT22;8350;52.316;10.530;2022-12-15T03:26:00;-9.20;99.90
16479;DHT22;8350;52.316;10.530;2022-12-15T03:28:28;-9.20;99.90
16479;DHT22;8350;52.316;10.530;2022-12-15T03:30:55;-9.00;99.90
16479;DHT22;8350;52.316;10.530;2022-12-15T03:33:22;-8.90;99.90
16479;DHT22;8350;52.316;10.530;2022-12-15T03:35:50;-8.90;99.90
16479;DHT22;8350;52.316;10.530;2022-12-15T03:38:20;-9.00;99.90
16479;DHT22;8350;52.316;10.530;2022-12-15T03:40:47;-8.90;99.90
16479;DHT22;8350;52.316;10.530;2022-12-15T03:43:14;-8.90;99.90
16479;DHT22;8350;52.316;10.530;2022-12-15T03:45:41;-8.80;99.90
16479;DHT22;8350;52.316;10.530;2022-12-15T03:48:09;-8.80;99.90
16479;DHT22;8350;52.316;10.530;2022-12-15T03:50:36;-8.80;99.90
16479;DHT22;8350;52.316;10.530;2022-12-15T03:53:04;-8.80;99.90
16479;DHT22;8350;52.316;10.530;2022-12-15T03:55:32;-8.60;99.90
16479;DHT22;8350;52.316;10.530;2022-12-15T03:57:59;-8.50;99.90
16479;DHT22;8350;52.316;10.530;2022-12-15T04:00:27;-8.30;99.90
16479;DHT22;8350;52.316;10.530;2022-12-15T04:02:54;-8.10;99.90
16479;DHT22;8350;52.316;10.530;2022-12-15T04:05:40;-7.90;99.90
16479;DHT22;8350;52.316;10.530;2022-12-15T04:08:08;-7.80;99.90
16479;DHT22;8350;52.316;10.530;2022-12-15T04:10:37;-7.80;99.90
16479;DHT22;8350;52.316;10.530;2022-12-15T04:13:06;-7.80;99.90
16479;DHT22;8350;52.316;10.530;2022-12-15T04:15:34;-7.90;99.90
16479;DHT22;8350;52.316;10.530;2022-12-15T04:18:03;-7.90;99.90
16479;DHT22;8350;52.316;10.530;2022-12-15T04:20:30;-7.90;99.90
16479;DHT22;8350;52.316;10.530;2022-12-15T04:22:59;-8.00;99.90
16479;DHT22;8350;52.316;10.530;2022-12-15T04:25:29;-8.00;99.90
16479;DHT22;8350;52.316;10.530;2022-12-15T04:28:13;-8.10;99.90
16479;DHT22;8350;52.316;10.530;2022-12-15T04:31:00;-8.10;99.90
16479;DHT22;8350;52.316;10.530;2022-12-15T04:33:48;-8.10;99.90
16479;DHT22;8350;52.316;10.530;2022-12-15T04:36:35;-8.00;99.90
16479;DHT22;8350;52.316;10.530;2022-12-15T04:39:20;-8.00;99.90
16479;DHT22;8350;52.316;10.530;2022-12-15T04:42:07;-7.90;99.90
16479;DHT22;8350;52.316;10.530;2022-12-15T04:44:56;-7.80;99.90
16479;DHT22;8350;52.316;10.530;2022-12-15T04:47:41;-7.70;99.90
16479;DHT22;8350;52.316;10.530;2022-12-15T04:50:28;-7.60;99.90
16479;DHT22;8350;52.316;10.530;2022-12-15T04:53:14;-7.50;99.90
16479;DHT22;8350;52.316;10.530;2022-12-15T04:55:59;-7.40;99.90
16479;DHT22;8350;52.316;10.530;2022-12-15T04:58:45;-7.30;99.90
16479;DHT22;8350;52.316;10.530;2022-12-15T05:01:29;-7.20;99.90
16479;DHT22;8350;52.316;10.530;2022-12-15T05:04:14;-7.10;99.90
16479;DHT22;8350;52.316;10.530;2022-12-15T05:06:58;-7.10;99.90
16479;DHT22;8350;52.316;10.530;2022-12-15T05:09:42;-7.00;99.90
16479;DHT22;8350;52.316;10.530;2022-12-15T05:12:29;-7.10;99.90
16479;DHT22;8350;52.316;10.530;2022-12-15T05:15:15;-7.10;99.90
16479;DHT22;8350;52.316;10.530;2022-12-15T05:17:59;-7.10;99.90
16479;DHT22;8350;52.316;10.530;2022-12-15T05:20:44;-7.10;99.90
16479;DHT22;8350;52.316;10.530;2022-12-15T05:23:28;-7.10;99.90
16479;DHT22;8350;52.316;10.530;2022-12-15T05:26:12;-7.10;99.90
16479;DHT22;8350;52.316;10.530;2022-12-15T05:28:57;-7.20;99.90
16479;DHT22;8350;52.316;10.530;2022-12-15T05:31:46;-7.10;99.90
16479;DHT22;8350;52.316;10.530;2022-12-15T05:34:17;-7.10;99.90
16479;DHT22;8350;52.316;10.530;2022-12-15T05:36:44;-7.20;99.90
16479;DHT22;8350;52.316;10.530;2022-12-15T05:39:13;-7.20;99.90
16479;DHT22;8350;52.316;10.530;2022-12-15T05:41:41;-7.30;99.90
16479;DHT22;8350;52.316;10.530;2022-12-15T05:44:09;-7.30;99.90
16479;DHT22;8350;52.316;10.530;2022-12-15T05:46:36;-7.30;99.90
16479;DHT22;8350;52.316;10.530;2022-12-15T05:49:05;-7.30;99.90
16479;DHT22;8350;52.316;10.530;2022-12-15T05:51:37;-7.20;99.90
16479;DHT22;8350;52.316;10.530;2022-12-15T05:54:05;-7.20;99.90
16479;DHT22;8350;52.316;10.530;2022-12-15T05:56:32;-7.20;99.90
16479;DHT22;8350;52.316;10.530;2022-12-15T05:58:59;-7.10;99.90
16479;DHT22;8350;52.316;10.530;2022-12-15T06:01:26;-7.20;99.90
16479;DHT22;8350;52.316;10.530;2022-12-15T06:03:55;-7.10;99.90
16479;DHT22;8350;52.316;10.530;2022-12-15T06:06:24;-7.10;99.90
16479;DHT22;8350;52.316;10.530;2022-12-15T06:08:51;-7.10;99.90
16479;DHT22;8350;52.316;10.530;2022-12-15T06:11:19;-7.10;99.90
16479;DHT22;8350;52.316;10.530;2022-12-15T06:13:46;-7.10;99.90
16479;DHT22;8350;52.316;10.530;2022-12-15T06:16:15;-7.10;99.90
16479;DHT22;8350;52.316;10.530;2022-12-15T06:18:43;-7.10;99.90
16479;DHT22;8350;52.316;10.530;2022-12-15T06:21:14;-7.00;99.90
16479;DHT22;8350;52.316;10.530;2022-12-15T06:23:44;-7.10;99.90
16479;DHT22;8350;52.316;10.530;2022-12-15T06:26:17;-7.10;99.90
16479;DHT22;8350;52.316;10.530;2022-12-15T06:28:45;-7.10;99.90
16479;DHT22;8350;52.316;10.530;2022-12-15T06:31:16;-7.00;99.90
16479;DHT22;8350;52.316;10.530;2022-12-15T06:33:44;-7.00;99.90
16479;DHT22;8350;52.316;10.530;2022-12-15T06:36:12;-6.90;99.90
16479;DHT22;8350;52.316;10.530;2022-12-15T06:38:40;-6.80;99.90
16479;DHT22;8350;52.316;10.530;2022-12-15T06:41:10;-6.70;99.90
16479;DHT22;8350;52.316;10.530;2022-12-15T06:43:38;-6.70;99.90
16479;DHT22;8350;52.316;10.530;2022-12-15T06:46:06;-6.70;99.90
16479;DHT22;8350;52.316;10.530;2022-12-15T06:48:33;-6.60;99.90
16479;DHT22;8350;52.316;10.530;2022-12-15T06:51:05;-6.70;99.90
16479;DHT22;8350;52.316;10.530;2022-12-15T06:53:36;-6.80;99.90
16479;DHT22;8350;52.316;10.530;2022-12-15T06:56:05;-6.80;99.90
16479;DHT22;8350;52.316;10.530;2022-12-15T06:58:34;-6.90;99.90
16479;DHT22;8350;52.316;10.530;2022-12-15T07:01:05;-6.90;99.90
16479;DHT22;8350;52.316;10.530;2022-12-15T07:03:33;-7.00;99.90
16479;DHT22;8350;52.316;10.530;2022-12-15T07:06:01;-6.80;99.90
16479;DHT22;8350;52.316;10.530;2022-12-15T07:08:29;-6.80;99.90
16479;DHT22;8350;52.316;10.530;2022-12-15T07:10:56;-6.80;99.90
16479;DHT22;8350;52.316;10.530;2022-12-15T07:13:23;-6.80;99.90
16479;DHT22;8350;52.316;10.530;2022-12-15T07:15:51;-6.70;99.90
16479;DHT22;8350;52.316;10.530;2022-12-15T07:18:19;-6.70;99.90
16479;DHT22;8350;52.316;10.530;2022-12-15T07:20:46;-6.70;99.90
16479;DHT22;8350;52.316;10.530;2022-12-15T07:23:13;-6.80;99.90
16479;DHT22;8350;52.316;10.530;2022-12-15T07:25:40;-6.80;99.90
16479;DHT22;8350;52.316;10.530;2022-12-15T07:28:07;-6.80;99.90
16479;DHT22;8350;52.316;10.530;2022-12-15T07:30:35;-6.80;99.90
16479;DHT22;8350;52.316;10.530;2022-12-15T07:33:05;-6.80;99.90
16479;DHT22;8350;52.316;10.530;2022-12-15T07:35:32;-6.70;99.90
16479;DHT22;8350;52.316;10.530;2022-12-15T07:37:59;-6.70;99.90
16479;DHT22;8350;52.316;10.530;2022-12-15T07:40:26;-6.70;99.90
16479;DHT22;8350;52.316;10.530;2022-12-15T07:42:54;-6.70;99.90
16479;DHT22;8350;52.316;10.530;2022-12-15T07:45:22;-6.70;99.90
16479;DHT22;8350;52.316;10.530;2022-12-15T07:47:49;-6.70;99.90
16479;DHT22;8350;52.316;10.530;2022-12-15T07:50:18;-6.50;99.90
16479;DHT22;8350;52.316;10.530;2022-12-15T07:52:46;-6.50;99.90
16479;DHT22;8350;52.316;10.530;2022-12-15T07:55:13;-6.40;99.90
16479;DHT22;8350;52.316;10.530;2022-12-15T07:57:41;-6.30;99.90
16479;DHT22;8350;52.316;10.530;2022-12-15T08:00:08;-6.20;99.90
16479;DHT22;8350;52.316;10.530;2022-12-15T08:02:36;-6.20;99.90
16479;DHT22;8350;52.316;10.530;2022-12-15T08:05:05;-6.10;99.90
16479;DHT22;8350;52.316;10.530;2022-12-15T08:07:33;-6.00;99.90
16479;DHT22;8350;52.316;10.530;2022-12-15T08:10:00;-5.90;99.90
16479;DHT22;8350;52.316;10.530;2022-12-15T08:12:27;-5.70;99.90
16479;DHT22;8350;52.316;10.530;2022-12-15T08:14:56;-5.70;99.90
16479;DHT22;8350;52.316;10.530;2022-12-15T08:17:23;-5.60;99.90
16479;DHT22;8350;52.316;10.530;2022-12-15T08:19:50;-5.50;99.90
16479;DHT22;8350;52.316;10.530;2022-12-15T08:22:17;-5.50;99.90
16479;DHT22;8350;52.316;10.530;2022-12-15T08:24:46;-5.50;99.90
16479;DHT22;8350;52.316;10.530;2022-12-15T08:27:13;-5.40;99.90
16479;DHT22;8350;52.316;10.530;2022-12-15T08:29:40;-5.30;99.90
16479;DHT22;8350;52.316;10.530;2022-12-15T08:32:07;-5.20;99.90
16479;DHT22;8350;52.316;10.530;2022-12-15T08:34:34;-5.10;99.90
16479;DHT22;8350;52.316;10.530;2022-12-15T08:37:03;-5.10;99.90
16479;DHT22;8350;52.316;10.530;2022-12-15T08:39:30;-5.10;99.90
16479;DHT22;8350;52.316;10.530;2022-12-15T08:42:01;-5.00;99.90
16479;DHT22;8350;52.316;10.530;2022-12-15T08:44:28;-4.90;99.90
16479;DHT22;8350;52.316;10.530;2022-12-15T08:46:55;-4.90;99.90
16479;DHT22;8350;52.316;10.530;2022-12-15T08:49:25;-4.80;99.90
16479;DHT22;8350;52.316;10.530;2022-12-15T08:51:52;-4.70;99.90
16479;DHT22;8350;52.316;10.530;2022-12-15T08:54:22;-4.70;99.90
16479;DHT22;8350;52.316;10.530;2022-12-15T08:56:49;-4.60;99.90
16479;DHT22;8350;52.316;10.530;2022-12-15T08:59:21;-4.60;99.90
16479;DHT22;8350;52.316;10.530;2022-12-15T09:01:49;-4.50;99.90
16479;DHT22;8350;52.316;10.530;2022-12-15T09:04:16;-4.40;99.90
16479;DHT22;8350;52.316;10.530;2022-12-15T09:06:43;-4.40;99.90
16479;DHT22;8350;52.316;10.530;2022-12-15T09:09:11;-4.30;99.90
16479;DHT22;8350;52.316;10.530;2022-12-15T09:11:41;-4.30;99.90
16479;DHT22;8350;52.316;10.530;2022-12-15T09:14:08;-4.20;99.90
16479;DHT22;8350;52.316;10.530;2022-12-15T09:16:37;-4.10;99.90
16479;DHT22;8350;52.316;10.530;2022-12-15T09:19:04;-4.00;99.90
16479;DHT22;8350;52.316;10.530;2022-12-15T09:21:32;-3.90;99.90
16479;DHT22;8350;52.316;10.530;2022-12-15T09:24:00;-3.90;99.90
16479;DHT22;8350;52.316;10.530;2022-12-15T09:26:30;-3.80;99.90
16479;DHT22;8350;52.316;10.530;2022-12-15T09:28:58;-3.70;99.90
16479;DHT22;8350;52.316;10.530;2022-12-15T09:31:27;-3.70;99.90
16479;DHT22;8350;52.316;10.530;2022-12-15T09:33:57;-3.60;99.90
16479;DHT22;8350;52.316;10.530;2022-12-15T09:36:25;-3.50;99.90
16479;DHT22;8350;52.316;10.530;2022-12-15T09:38:53;-3.40;99.90
16479;DHT22;8350;52.316;10.530;2022-12-15T09:41:24;-3.30;99.90
16479;DHT22;8350;52.316;10.530;2022-12-15T09:43:54;-3.30;99.90
16479;DHT22;8350;52.316;10.530;2022-12-15T09:46:32;-3.20;99.90
16479;DHT22;8350;52.316;10.530;2022-12-15T09:49:08;-3.20;99.90
16479;DHT22;8350;52.316;10.530;2022-12-15T09:51:42;-3.10;99.90
16479;DHT22;8350;52.316;10.530;2022-12-15T09:54:11;-3.10;99.90
16479;DHT22;8350;52.316;10.530;2022-12-15T09:56:42;-3.10;99.90
16479;DHT22;8350;52.316;10.530;2022-12-15T09:59:23;-3.00;99.90
16479;DHT22;8350;52.316;10.530;2022-12-15T10:01:59;-3.00;99.90
16479;DHT22;8350;52.316;10.530;2022-12-15T10:04:40;-3.00;99.90
16479;DHT22;8350;52.316;10.530;2022-12-15T10:07:19;-2.90;99.90
16479;DHT22;8350;52.316;10.530;2022-12-15T10:09:48;-2.90;99.90
16479;DHT22;8350;52.316;10.530;2022-12-15T10:12:18;-2.80;99.90
16479;DHT22;8350;52.316;10.530;2022-12-15T10:14:55;-2.70;99.90
16479;DHT22;8350;52.316;10.530;2022-12-15T10:17:37;-2.70;99.90
16479;DHT22;8350;52.316;10.530;2022-12-15T10:20:15;-2.60;99.90
16479;DHT22;8350;52.316;10.530;2022-12-15T10:22:43;-2.50;99.90
16479;DHT22;8350;52.316;10.530;2022-12-15T10:25:15;-2.50;99.90
16479;DHT22;8350;52.316;10.530;2022-12-15T10:27:54;-2.40;99.90
16479;DHT22;8350;52.316;10.530;2022-12-15T10:30:24;-2.30;99.90
16479;DHT22;8350;52.316;10.530;2022-12-15T10:32:56;-2.30;99.90
16479;DHT22;8350;52.316;10.530;2022-12-15T10:35:30;-2.30;99.90
16479;DHT22;8350;52.316;10.530;2022-12-15T10:38:02;-2.20;99.90
16479;DHT22;8350;52.316;10.530;2022-12-15T10:40:45;-2.20;99.90
16479;DHT22;8350;52.316;10.530;2022-12-15T10:43:14;-2.10;99.90
16479;DHT22;8350;52.316;10.530;2022-12-15T10:45:47;-2.10;99.90
16479;DHT22;8350;52.316;10.530;2022-12-15T10:48:18;-2.00;99.90
16479;DHT22;8350;52.316;10.530;2022-12-15T10:50:47;-2.00;99.90
16479;DHT22;8350;52.316;10.530;2022-12-15T10:53:31;-1.90;99.90
16479;DHT22;8350;52.316;10.530;2022-12-15T10:56:00;-1.90;99.90
16479;DHT22;8350;52.316;10.530;2022-12-15T10:58:29;-1.80;99.90
16479;DHT22;8350;52.316;10.530;2022-12-15T11:01:05;-1.70;99.90
16479;DHT22;8350;52.316;10.530;2022-12-15T11:03:35;-1.70;99.90
16479;DHT22;8350;52.316;10.530;2022-12-15T11:06:11;-1.70;99.90
16479;DHT22;8350;52.316;10.530;2022-12-15T11:09:06;-1.60;99.90
16479;DHT22;8350;52.316;10.530;2022-12-15T11:11:45;-1.60;99.90
16479;DHT22;8350;52.316;10.530;2022-12-15T11:14:42;-1.50;99.90
16479;DHT22;8350;52.316;10.530;2022-12-15T11:17:14;-1.40;99.90
16479;DHT22;8350;52.316;10.530;2022-12-15T11:19:50;-1.40;99.90
16479;DHT22;8350;52.316;10.530;2022-12-15T11:22:29;-1.30;99.90
16479;DHT22;8350;52.316;10.530;2022-12-15T11:24:59;-1.20;99.90
16479;DHT22;8350;52.316;10.530;2022-12-15T11:27:32;-1.20;99.90
16479;DHT22;8350;52.316;10.530;2022-12-15T11:30:12;-1.10;99.90
16479;DHT22;8350;52.316;10.530;2022-12-15T11:32:47;-1.00;99.90
16479;DHT22;8350;52.316;10.530;2022-12-15T11:35:17;-0.80;99.90
16479;DHT22;8350;52.316;10.530;2022-12-15T11:37:55;-0.80;99.90
16479;DHT22;8350;52.316;10.530;2022-12-15T11:40:33;-0.80;99.90
16479;DHT22;8350;52.316;10.530;2022-12-15T11:46:19;-0.60;99.90
16479;DHT22;8350;52.316;10.530;2022-12-15T11:49:21;-0.60;99.90
16479;DHT22;8350;52.316;10.530;2022-12-15T11:51:57;-0.60;99.90
16479;DHT22;8350;52.316;10.530;2022-12-15T11:54:34;-0.50;99.90
16479;DHT22;8350;52.316;10.530;2022-12-15T11:57:18;-0.50;99.90
16479;DHT22;8350;52.316;10.530;2022-12-15T12:00:08;-0.30;99.90
16479;DHT22;8350;52.316;10.530;2022-12-15T12:03:06;-0.40;99.90
16479;DHT22;8350;52.316;10.530;2022-12-15T12:05:50;-0.30;99.90
16479;DHT22;8350;52.316;10.530;2022-12-15T12:08:34;-0.30;99.90
16479;DHT22;8350;52.316;10.530;2022-12-15T12:11:10;-0.20;99.90
16479;DHT22;8350;52.316;10.530;2022-12-15T12:13:48;-0.20;99.90
16479;DHT22;8350;52.316;10.530;2022-12-15T12:16:27;-0.10;99.90
16479;DHT22;8350;52.316;10.530;2022-12-15T12:19:01;-0.10;99.90
16479;DHT22;8350;52.316;10.530;2022-12-15T12:21:33;0.00;99.90
16479;DHT22;8350;52.316;10.530;2022-12-15T12:24:05;0.00;99.90
16479;DHT22;8350;52.316;10.530;2022-12-15T12:26:42;0.00;99.90
16479;DHT22;8350;52.316;10.530;2022-12-15T12:29:14;0.10;99.90
16479;DHT22;8350;52.316;10.530;2022-12-15T12:31:53;0.10;99.90
16479;DHT22;8350;52.316;10.530;2022-12-15T12:34:25;0.20;99.90
16479;DHT22;8350;52.316;10.530;2022-12-15T12:37:00;0.30;99.90
16479;DHT22;8350;52.316;10.530;2022-12-15T12:39:27;0.30;99.90
16479;DHT22;8350;52.316;10.530;2022-12-15T12:42:01;0.30;99.90
16479;DHT22;8350;52.316;10.530;2022-12-15T12:44:34;0.30;99.90
16479;DHT22;8350;52.316;10.530;2022-12-15T12:47:07;0.40;99.90
16479;DHT22;8350;52.316;10.530;2022-12-15T12:49:40;0.50;99.90
16479;DHT22;8350;52.316;10.530;2022-12-15T12:52:18;0.50;99.90
16479;DHT22;8350;52.316;10.530;2022-12-15T12:54:55;0.60;99.90
16479;DHT22;8350;52.316;10.530;2022-12-15T12:57:44;0.60;99.90
16479;DHT22;8350;52.316;10.530;2022-12-15T13:00:23;0.60;99.90
16479;DHT22;8350;52.316;10.530;2022-12-15T13:03:16;0.70;99.90
16479;DHT22;8350;52.316;10.530;2022-12-15T13:05:46;0.70;99.90
16479;DHT22;8350;52.316;10.530;2022-12-15T13:08:45;0.70;99.90
16479;DHT22;8350;52.316;10.530;2022-12-15T13:14:44;0.70;99.90
16479;DHT22;8350;52.316;10.530;2022-12-15T13:17:15;0.70;99.90
16479;DHT22;8350;52.316;10.530;2022-12-15T13:22:48;0.70;99.90
16479;DHT22;8350;52.316;10.530;2022-12-15T13:25:36;0.70;99.90
16479;DHT22;8350;52.316;10.530;2022-12-15T13:28:18;0.70;79.00
16479;DHT22;8350;52.316;10.530;2022-12-15T13:31:39;0.60;95.10
16479;DHT22;8350;52.316;10.530;2022-12-15T13:34:21;0.50;99.90
16479;DHT22;8350;52.316;10.530;2022-12-15T13:36:56;0.40;99.90
16479;DHT22;8350;52.316;10.530;2022-12-15T13:39:52;0.40;99.90
16479;DHT22;8350;52.316;10.530;2022-12-15T13:42:33;0.40;99.90
16479;DHT22;8350;52.316;10.530;2022-12-15T13:45:23;0.50;99.90
16479;DHT22;8350;52.316;10.530;2022-12-15T13:47:56;0.50;99.90
16479;DHT22;8350;52.316;10.530;2022-12-15T13:50:35;0.50;99.90
16479;DHT22;8350;52.316;10.530;2022-12-15T13:53:13;0.60;99.90
16479;DHT22;8350;52.316;10.530;2022-12-15T13:55:51;0.50;99.90
16479;DHT22;8350;52.316;10.530;2022-12-15T13:58:20;0.50;99.90
16479;DHT22;8350;52.316;10.530;2022-12-15T14:00:52;0.60;99.90
16479;DHT22;8350;52.316;10.530;2022-12-15T14:03:21;0.50;99.90
16479;DHT22;8350;52.316;10.530;2022-12-15T14:05:51;0.50;99.90
16479;DHT22;8350;52.316;10.530;2022-12-15T14:08:23;0.50;99.90
16479;DHT22;8350;52.316;10.530;2022-12-15T14:10:53;0.40;99.90
16479;DHT22;8350;52.316;10.530;2022-12-15T14:13:25;0.40;99.90
16479;DHT22;8350;52.316;10.530;2022-12-15T14:15:55;0.20;99.90
16479;DHT22;8350;52.316;10.530;2022-12-15T14:18:27;0.20;99.90
16479;DHT22;8350;52.316;10.530;2022-12-15T14:20:55;0.00;99.90
16479;DHT22;8350;52.316;10.530;2022-12-15T14:23:24;-0.10;99.90
16479;DHT22;8350;52.316;10.530;2022-12-15T14:25:53;-0.10;99.90
16479;DHT22;8350;52.316;10.530;2022-12-15T14:28:26;0.00;99.90
16479;DHT22;8350;52.316;10.530;2022-12-15T14:31:02;0.00;99.90
16479;DHT22;8350;52.316;10.530;2022-12-15T14:33:34;0.10;99.90
16479;DHT22;8350;52.316;10.530;2022-12-15T14:36:05;0.10;99.90
16479;DHT22;8350;52.316;10.530;2022-12-15T14:38:40;0.00;99.90
16479;DHT22;8350;52.316;10.530;2022-12-15T14:41:27;-0.10;99.90
16479;DHT22;8350;52.316;10.530;2022-12-15T14:44:03;-0.10;99.90
16479;DHT22;8350;52.316;10.530;2022-12-15T14:46:31;-0.20;99.90
16479;DHT22;8350;52.316;10.530;2022-12-15T14:49:02;-0.20;99.90
16479;DHT22;8350;52.316;10.530;2022-12-15T14:51:37;-0.30;99.90
16479;DHT22;8350;52.316;10.530;2022-12-15T14:54:05;-0.40;99.90
16479;DHT22;8350;52.316;10.530;2022-12-15T14:56:32;-0.40;99.90
16479;DHT22;8350;52.316;10.530;2022-12-15T14:59:00;-0.40;99.90
16479;DHT22;8350;52.316;10.530;2022-12-15T15:01:32;-0.40;99.90
16479;DHT22;8350;52.316;10.530;2022-12-15T15:07:03;-0.50;99.90
16479;DHT22;8350;52.316;10.530;2022-12-15T15:09:32;-0.50;99.90
16479;DHT22;8350;52.316;10.530;2022-12-15T15:12:02;-0.40;99.90
16479;DHT22;8350;52.316;10.530;2022-12-15T15:14:32;-0.50;99.90
16479;DHT22;8350;52.316;10.530;2022-12-15T15:17:05;-0.60;99.90
16479;DHT22;8350;52.316;10.530;2022-12-15T15:19:36;-0.70;99.90
16479;DHT22;8350;52.316;10.530;2022-12-15T15:22:04;-0.70;99.90
16479;DHT22;8350;52.316;10.530;2022-12-15T15:24:34;-0.80;99.90
16479;DHT22;8350;52.316;10.530;2022-12-15T15:27:25;-0.90;99.90
16479;DHT22;8350;52.316;10.530;2022-12-15T15:30:06;-1.00;99.90
16479;DHT22;8350;52.316;10.530;2022-12-15T15:32:48;-1.00;99.90
16479;DHT22;8350;52.316;10.530;2022-12-15T15:35:17;-1.10;99.90
16479;DHT22;8350;52.316;10.530;2022-12-15T15:37:45;-1.00;99.90
16479;DHT22;8350;52.316;10.530;2022-12-15T15:40:13;-1.00;99.90
16479;DHT22;8350;52.316;10.530;2022-12-15T15:42:48;-1.10;99.90
16479;DHT22;8350;52.316;10.530;2022-12-15T15:45:15;-1.10;99.90
16479;DHT22;8350;52.316;10.530;2022-12-15T15:47:45;-1.20;99.90
16479;DHT22;8350;52.316;10.530;2022-12-15T15:50:15;-1.30;99.90
16479;DHT22;8350;52.316;10.530;2022-12-15T15:52:44;-1.30;99.90
16479;DHT22;8350;52.316;10.530;2022-12-15T15:55:20;-1.50;99.90
16479;DHT22;8350;52.316;10.530;2022-12-15T15:57:51;-1.60;99.90
16479;DHT22;8350;52.316;10.530;2022-12-15T16:00:21;-1.50;99.90
16479;DHT22;8350;52.316;10.530;2022-12-15T16:02:49;-1.50;99.90
16479;DHT22;8350;52.316;10.530;2022-12-15T16:05:17;-1.60;99.90
16479;DHT22;8350;52.316;10.530;2022-12-15T16:07:47;-1.60;99.90
16479;DHT22;8350;52.316;10.530;2022-12-15T16:10:16;-1.60;99.90
16479;DHT22;8350;52.316;10.530;2022-12-15T16:12:45;-1.60;99.90
16479;DHT22;8350;52.316;10.530;2022-12-15T16:15:15;-1.60;99.90
16479;DHT22;8350;52.316;10.530;2022-12-15T16:17:43;-1.70;99.90
16479;DHT22;8350;52.316;10.530;2022-12-15T16:20:16;-1.70;99.90
16479;DHT22;8350;52.316;10.530;2022-12-15T16:22:47;-1.70;99.90
16479;DHT22;8350;52.316;10.530;2022-12-15T16:25:18;-1.70;99.90
16479;DHT22;8350;52.316;10.530;2022-12-15T16:27:46;-1.80;99.90